Morgantown, WV (26501)

10:33 AM EDT on May 26, 2015 (GMT -0400)
WVU Evansdale NRCCE | | Change Station
CLOSE
Current Station
Personal Weather Station
Location: Morgantown, WV
Elevation: 1115 ft
Nearby Weather Stations

Elev 1115 ft 39.65 °N, 79.97 °W | Updated 5 seconds ago

Overcast
Overcast
72.0 °F
Feels Like 74 °F
N
0.0
Wind Variable Wind from SSW
Gusts 2.9 mph

Today
High -- | Low -- °F
--% Chance of Precip.
Yesterday
High -- | Low -- °F
Precip. -- in
5:57 AM 8:37 PM
First Quarter, 58% visible
Pressure 30.21 in
Visibility 10.0 miles
Clouds Few 3100 ft
Scattered Clouds 4700 ft
Overcast 9500 ft
Heat Index 74 °F
Dew Point 63 °F
Humidity 73%
Rainfall 0.00 in
Snow Depth Not available.
UV 2 out of 12
Pollen 1.60 out of 12
Air Quality Not available.
Flu Activity Sporadic
METAR KMGW 261353Z 19005KT 10SM FEW031 SCT047 OVC095 22/15 A3023 RMK AO2 SLP229 T02220150

More Conditions Fewer Conditions

Pressure 30.21 in
Visibility 10.0 miles
Clouds Few 3100 ft
Scattered Clouds 4700 ft
Overcast 9500 ft
Heat Index 74 °F
Dew Point 63 °F
Humidity 73%
Rainfall 0.00 in
Snow Depth Not available.
UV 2 out of 12
Pollen 1.60 out of 12
Air Quality Not available.
Flu Activity Sporadic
METAR KMGW 261353Z 19005KT 10SM FEW031 SCT047 OVC095 22/15 A3023 RMK AO2 SLP229 T02220150

More Conditions Fewer Conditions

10-Day Weather Forecast

Almanac

Astronomy

May. 26, 2015 Rise Set
Actual Time
Civil Twilight
Nautical Twilight
Astronomical Twilight
Moon
Length of Visible Light
Length of Day
Tomorrow will be .
, % of the Moon is Illuminated

Today's Extremes

State Highs State Lows

Community

WunderPhotos

Upload Photos

1,824,343 photos uploaded!

WunderBlogs® & News

Nearby

Air Quality

  Air Quality AQ Index Pollutant
Not available.

Snow Depth

Station Depth Elevation

Earthquake Activity

City Distance Mag. Time & Date
Minimum magnitude displayed is 2.5.

Coastal Water Temperatures

Place Temperature

Stations

Nearby Weather Stations

Station Location Temp. Windchill Dew Point Humidity Wind Precip. Elev Updated Type